createdAt,value
2022-11-29T00:00:55.445Z,0.36
2022-11-29T00:03:58.882Z,0.25
2022-11-29T00:19:55.168Z,0.23
2022-11-29T00:22:58.453Z,0.16
2022-11-29T00:26:06.648Z,0.12
2022-11-29T00:29:12.379Z,0.14
2022-11-29T00:32:15.696Z,0.14
2022-11-29T00:35:19.006Z,0.15
2022-11-29T00:38:21.509Z,0.16
2022-11-29T00:41:25.216Z,0.13
2022-11-29T00:44:28.200Z,0.20
2022-11-29T00:47:31.189Z,0.23
2022-11-29T00:50:33.855Z,0.28
2022-11-29T00:53:38.033Z,0.27
2022-11-29T00:56:40.453Z,0.23
2022-11-29T00:59:44.554Z,0.24
2022-11-29T01:02:48.687Z,0.26
2022-11-29T01:05:53.434Z,0.28
2022-11-29T01:08:56.057Z,0.31
2022-11-29T01:11:58.739Z,0.26
2022-11-29T01:15:01.186Z,0.30
2022-11-29T01:18:05.089Z,0.29
2022-11-29T01:21:17.389Z,0.34
2022-11-29T01:24:22.188Z,0.42
2022-11-29T01:27:25.023Z,0.35
2022-11-29T01:30:28.146Z,0.35
2022-11-29T01:33:30.830Z,0.34
2022-11-29T01:36:34.561Z,0.27
2022-11-29T01:39:37.859Z,0.28
2022-11-29T01:42:40.582Z,0.29
2022-11-29T01:45:45.570Z,0.26
2022-11-29T01:48:51.324Z,0.25
2022-11-29T01:52:00.032Z,0.22
2022-11-29T01:55:07.750Z,0.22
2022-11-29T01:58:10.954Z,0.24
2022-11-29T02:01:15.129Z,0.24
2022-11-29T02:04:19.319Z,0.28
2022-11-29T02:07:22.333Z,0.25
2022-11-29T02:10:49.157Z,0.22
2022-11-29T02:14:37.588Z,0.26
2022-11-29T02:18:27.210Z,0.25
2022-11-29T02:21:42.238Z,0.17
2022-11-29T02:25:08.077Z,0.17
2022-11-29T02:28:42.103Z,0.12
2022-11-29T02:32:36.708Z,0.13
2022-11-29T02:36:23.724Z,0.20
2022-11-29T02:39:35.086Z,0.21
2022-11-29T02:43:07.262Z,0.25
2022-11-29T02:46:39.603Z,0.26
2022-11-29T02:49:58.594Z,0.22
2022-11-29T02:53:23.682Z,0.25
2022-11-29T02:56:34.639Z,0.23
2022-11-29T03:00:03.402Z,0.21
2022-11-29T03:03:17.899Z,0.19
2022-11-29T03:06:44.210Z,0.25
2022-11-29T03:10:04.969Z,0.24
2022-11-29T03:13:22.526Z,0.15
2022-11-29T03:16:51.039Z,0.16
2022-11-29T03:20:20.565Z,0.07
2022-11-29T03:23:28.920Z,0.13
2022-11-29T03:26:43.336Z,0.15
2022-11-29T03:29:57.853Z,0.15
2022-11-29T03:33:16.945Z,0.13
2022-11-29T03:36:44.943Z,0.05
2022-11-29T03:39:59.780Z,-0.04
2022-11-29T03:43:10.962Z,-0.05
2022-11-29T03:46:35.390Z,-0.13
2022-11-29T03:49:54.676Z,-0.13
2022-11-29T03:53:13.154Z,-0.10
2022-11-29T03:56:23.092Z,-0.06
2022-11-29T03:59:50.637Z,-0.05
2022-11-29T04:03:18.449Z,-0.06
2022-11-29T04:07:00.932Z,-0.12
2022-11-29T04:10:23.192Z,-0.11
2022-11-29T04:13:49.295Z,-0.18
2022-11-29T04:17:24.321Z,-0.22
2022-11-29T04:20:39.080Z,-0.25
2022-11-29T04:24:13.893Z,-0.23
2022-11-29T04:27:31.038Z,-0.14
2022-11-29T04:31:01.697Z,-0.29
2022-11-29T04:34:38.675Z,-0.24
2022-11-29T04:37:47.139Z,-0.19
2022-11-29T04:41:04.834Z,-0.19
2022-11-29T04:44:16.698Z,-0.26
2022-11-29T04:47:57.475Z,-0.32
2022-11-29T04:51:15.617Z,-0.30
2022-11-29T04:55:00.726Z,-0.29
2022-11-29T04:58:19.274Z,-0.28
2022-11-29T05:01:56.524Z,-0.30
2022-11-29T05:05:29.447Z,-0.26
2022-11-29T05:08:39.715Z,-0.26
2022-11-29T05:11:58.840Z,-0.24
2022-11-29T05:15:29.453Z,-0.17
2022-11-29T05:19:12.179Z,-0.17
2022-11-29T05:22:39.325Z,-0.13
2022-11-29T05:26:07.840Z,-0.20
2022-11-29T05:29:29.840Z,-0.22
2022-11-29T05:32:56.045Z,-0.38
2022-11-29T05:36:14.015Z,-0.39
2022-11-29T05:39:35.080Z,-0.34
2022-11-29T05:42:56.747Z,-0.29
2022-11-29T05:46:12.855Z,-0.33
2022-11-29T05:49:35.263Z,-0.35
2022-11-29T05:53:23.458Z,-0.29
2022-11-29T05:56:34.682Z,-0.33
2022-11-29T05:59:39.025Z,-0.24
2022-11-29T06:02:54.408Z,-0.17
2022-11-29T06:06:07.640Z,-0.12
2022-11-29T06:09:29.359Z,-0.17
2022-11-29T06:12:37.866Z,-0.17
2022-11-29T06:16:16.584Z,-0.16
2022-11-29T06:19:58.215Z,-0.10
2022-11-29T06:23:29.367Z,-0.09
2022-11-29T06:26:46.758Z,-0.08
2022-11-29T06:30:13.564Z,-0.09
2022-11-29T06:33:36.606Z,-0.03
2022-11-29T06:36:48.930Z,-0.03
2022-11-29T06:39:52.212Z,-0.05
2022-11-29T06:42:55.868Z,-0.03
2022-11-29T06:46:02.713Z,-0.04
2022-11-29T06:49:30.690Z,-0.01
2022-11-29T06:53:00.645Z,0.05
2022-11-29T06:56:25.429Z,0.07
2022-11-29T06:59:49.023Z,0.10
2022-11-29T07:03:24.682Z,0.12
2022-11-29T07:06:29.777Z,0.12
2022-11-29T07:09:35.636Z,0.09
2022-11-29T07:12:40.625Z,0.17
2022-11-29T07:16:04.711Z,0.15
2022-11-29T07:19:34.723Z,0.22
2022-11-29T07:23:08.853Z,0.18
2022-11-29T07:26:22.705Z,0.20
2022-11-29T07:29:47.865Z,0.26
2022-11-29T07:33:09.354Z,0.25
2022-11-29T07:36:50.123Z,0.26
2022-11-29T07:39:57.629Z,0.32
2022-11-29T07:43:38.868Z,0.33
2022-11-29T07:46:44.074Z,0.28
2022-11-29T07:49:48.079Z,0.30
2022-11-29T07:52:54.078Z,0.33
2022-11-29T07:55:58.648Z,0.41
2022-11-29T07:59:03.006Z,0.43
2022-11-29T08:02:11.647Z,0.44
2022-11-29T08:05:17.956Z,0.40
2022-11-29T08:08:20.943Z,0.48
2022-11-29T08:11:27.589Z,0.46
2022-11-29T08:14:34.038Z,0.55
2022-11-29T08:17:39.354Z,0.54
2022-11-29T08:20:43.765Z,0.51
2022-11-29T08:23:56.902Z,0.50
2022-11-29T08:27:01.058Z,0.48
2022-11-29T08:30:06.585Z,0.58
2022-11-29T08:33:10.749Z,0.55
2022-11-29T08:36:17.628Z,0.61
2022-11-29T08:39:28.155Z,0.64
2022-11-29T08:42:32.048Z,0.58
2022-11-29T08:45:34.884Z,0.75
2022-11-29T08:48:39.045Z,0.75
2022-11-29T08:51:42.747Z,0.76
2022-11-29T08:54:46.807Z,0.67
2022-11-29T08:57:51.330Z,0.84
2022-11-29T09:00:54.469Z,0.95
2022-11-29T09:04:00.599Z,1.14
2022-11-29T09:07:03.745Z,1.04
2022-11-29T09:10:09.129Z,1.10
2022-11-29T09:13:13.360Z,1.11
2022-11-29T09:16:26.631Z,1.02
2022-11-29T09:19:34.396Z,1.05
2022-11-29T09:22:39.303Z,1.16
2022-11-29T09:25:48.815Z,1.07
2022-11-29T09:28:52.638Z,1.10
2022-11-29T09:31:58.217Z,1.16
2022-11-29T09:35:01.864Z,1.31
2022-11-29T09:38:12.619Z,1.57
2022-11-29T09:41:32.350Z,1.54
2022-11-29T09:45:02.794Z,1.74
2022-11-29T09:48:47.284Z,1.59
2022-11-29T09:51:54.752Z,1.56
2022-11-29T09:55:25.752Z,1.58
2022-11-29T09:58:43.909Z,1.53
2022-11-29T10:01:51.514Z,1.57
2022-11-29T10:05:10.519Z,1.56
2022-11-29T10:08:25.861Z,1.45
2022-11-29T10:11:41.707Z,1.51
2022-11-29T10:14:59.543Z,1.53
2022-11-29T10:18:28.910Z,1.62
2022-11-29T10:21:38.412Z,1.49
2022-11-29T10:24:44.878Z,1.53
2022-11-29T10:27:48.912Z,1.53
2022-11-29T10:31:01.998Z,1.64
2022-11-29T10:34:15.276Z,1.64
2022-11-29T10:37:21.645Z,1.67
2022-11-29T10:40:35.281Z,1.73
2022-11-29T10:43:45.639Z,1.87
2022-11-29T10:46:51.032Z,1.65
2022-11-29T10:49:54.558Z,1.63
2022-11-29T10:53:13.853Z,1.69
2022-11-29T10:56:29.708Z,1.79
2022-11-29T10:59:36.885Z,2.00
2022-11-29T11:02:41.663Z,1.97
2022-11-29T11:05:57.882Z,2.05
2022-11-29T11:09:35.636Z,2.15
2022-11-29T11:12:39.597Z,2.01
2022-11-29T11:15:43.746Z,1.99
2022-11-29T11:18:48.184Z,2.12
2022-11-29T11:21:52.654Z,2.11
2022-11-29T11:25:04.476Z,2.10
2022-11-29T11:28:30.502Z,2.16
2022-11-29T11:31:38.724Z,2.26
2022-11-29T11:34:52.234Z,2.09
2022-11-29T11:37:58.796Z,2.12
2022-11-29T11:41:48.774Z,2.15
2022-11-29T11:44:53.730Z,2.27
2022-11-29T11:47:59.937Z,2.35
2022-11-29T11:51:06.592Z,2.51
2022-11-29T11:54:15.441Z,2.45
2022-11-29T11:57:21.522Z,2.50
2022-11-29T12:01:03.025Z,2.45
2022-11-29T12:04:38.004Z,2.49
2022-11-29T12:08:16.596Z,2.46
2022-11-29T12:11:20.795Z,2.47
2022-11-29T12:14:34.389Z,2.39
2022-11-29T12:17:49.822Z,2.48
2022-11-29T12:21:38.769Z,2.56
2022-11-29T12:24:55.489Z,2.46
2022-11-29T12:27:58.534Z,2.45
2022-11-29T12:31:55.538Z,2.51
2022-11-29T12:35:13.617Z,2.44
2022-11-29T12:38:26.533Z,2.48
2022-11-29T12:42:07.020Z,2.49
2022-11-29T12:45:37.184Z,2.58
2022-11-29T12:48:42.107Z,2.65
2022-11-29T12:52:05.922Z,2.61
2022-11-29T12:55:30.188Z,2.69
2022-11-29T12:59:14.166Z,2.64
2022-11-29T13:02:49.075Z,2.66
2022-11-29T13:06:17.374Z,2.60
2022-11-29T13:10:03.858Z,2.63
2022-11-29T13:13:38.980Z,2.53
2022-11-29T13:17:05.151Z,2.72
2022-11-29T13:20:28.993Z,2.53
2022-11-29T13:23:45.880Z,2.53
2022-11-29T13:27:07.256Z,2.52
2022-11-29T13:30:18.544Z,2.59
2022-11-29T13:33:41.847Z,2.61
2022-11-29T13:37:15.086Z,2.64
2022-11-29T13:40:32.650Z,2.61
2022-11-29T13:43:46.142Z,2.61
2022-11-29T13:46:52.727Z,2.60
2022-11-29T13:50:05.517Z,2.50
2022-11-29T13:53:21.985Z,2.45
2022-11-29T13:56:48.924Z,2.48
2022-11-29T13:59:55.691Z,2.41
2022-11-29T14:03:21.810Z,2.44
2022-11-29T14:06:37.439Z,2.48
2022-11-29T14:09:59.364Z,2.47
2022-11-29T14:13:07.986Z,2.44
2022-11-29T14:16:26.749Z,2.38
2022-11-29T14:19:38.555Z,2.39
2022-11-29T14:23:12.665Z,2.51
2022-11-29T14:26:29.160Z,2.53
2022-11-29T14:29:50.486Z,2.47
2022-11-29T14:33:36.082Z,2.43
2022-11-29T14:37:10.531Z,2.37
2022-11-29T14:40:40.034Z,2.31
2022-11-29T14:43:44.497Z,2.22
2022-11-29T14:46:51.552Z,2.21
2022-11-29T14:50:08.503Z,2.18
2022-11-29T14:53:36.498Z,2.09
2022-11-29T14:56:48.569Z,2.08
2022-11-29T15:00:08.546Z,2.11
2022-11-29T15:03:55.484Z,2.11
2022-11-29T16:05:41.463Z,1.89
2022-11-29T16:08:53.693Z,1.87
2022-11-29T16:12:02.484Z,1.86
2022-11-29T16:15:31.523Z,1.83
2022-11-29T16:18:47.494Z,1.81
2022-11-29T16:22:12.009Z,1.83
2022-11-29T16:25:27.196Z,1.83
2022-11-29T16:28:41.580Z,1.83
2022-11-29T16:31:51.006Z,1.85
2022-11-29T16:34:57.553Z,1.82
2022-11-29T16:38:10.624Z,1.84
2022-11-29T16:41:34.823Z,1.82
2022-11-29T16:44:49.483Z,1.81
2022-11-29T16:48:00.561Z,1.76
2022-11-29T16:51:21.574Z,1.81
2022-11-29T16:54:33.703Z,1.76
2022-11-29T16:57:48.518Z,1.70
2022-11-29T17:01:01.591Z,1.67
2022-11-29T17:04:23.525Z,1.67
2022-11-29T17:07:43.510Z,1.65
2022-11-29T17:10:52.713Z,1.66
2022-11-29T17:14:03.482Z,1.66
2022-11-29T17:17:21.455Z,1.62
2022-11-29T17:20:28.881Z,1.67
2022-11-29T17:23:45.437Z,1.62
2022-11-29T17:27:04.527Z,1.62
2022-11-29T17:30:12.413Z,1.56
2022-11-29T17:33:21.691Z,1.59
2022-11-29T17:36:32.416Z,1.59
2022-11-29T17:39:39.541Z,1.58
2022-11-29T17:42:51.555Z,1.55
2022-11-29T17:45:55.771Z,1.53
2022-11-29T17:49:01.323Z,1.55
2022-11-29T17:52:06.105Z,1.65
2022-11-29T17:55:20.480Z,1.61
2022-11-29T17:58:24.423Z,1.58
2022-11-29T18:01:38.754Z,1.63
2022-11-29T18:04:47.478Z,1.70
2022-11-29T18:08:07.605Z,1.71
2022-11-29T18:11:22.620Z,1.75
2022-11-29T18:14:36.521Z,1.71
2022-11-29T18:17:40.608Z,1.79
2022-11-29T18:20:50.469Z,1.82
2022-11-29T18:23:55.759Z,1.87
2022-11-29T18:27:00.881Z,1.95
2022-11-29T18:30:14.975Z,1.98
2022-11-29T18:33:23.472Z,1.96
2022-11-29T18:36:37.889Z,2.01
2022-11-29T18:39:53.798Z,2.03
2022-11-29T18:42:58.670Z,2.06
2022-11-29T18:46:24.121Z,2.07
2022-11-29T18:49:35.755Z,2.11
2022-11-29T18:52:58.385Z,2.20
2022-11-29T18:56:17.567Z,2.24
2022-11-29T18:59:29.442Z,2.21
2022-11-29T19:02:40.820Z,2.20
2022-11-29T19:06:00.477Z,2.20
2022-11-29T19:09:16.517Z,2.20
2022-11-29T19:12:22.588Z,2.23
2022-11-29T19:15:46.442Z,2.27
2022-11-29T19:18:54.554Z,2.28
2022-11-29T19:22:07.405Z,2.28
2022-11-29T19:25:17.577Z,2.31
2022-11-29T19:28:44.438Z,2.40
2022-11-29T19:31:53.618Z,2.39
2022-11-29T19:35:07.061Z,2.45
2022-11-29T19:38:16.797Z,2.44
2022-11-29T19:41:29.920Z,2.46
2022-11-29T19:45:14.905Z,2.46
2022-11-29T19:48:13.481Z,2.48
2022-11-29T19:51:18.086Z,2.52
2022-11-29T19:54:33.908Z,2.52
2022-11-29T19:58:02.770Z,2.51
2022-11-29T20:01:40.755Z,2.51
2022-11-29T20:05:00.716Z,2.52
2022-11-29T20:08:18.365Z,2.52
2022-11-29T20:11:33.599Z,2.51
2022-11-29T20:14:40.509Z,2.52
2022-11-29T20:17:53.401Z,2.52
2022-11-29T20:21:06.783Z,2.54
2022-11-29T20:24:19.746Z,2.52
2022-11-29T20:27:37.345Z,2.57
2022-11-29T20:30:48.295Z,2.61
2022-11-29T20:33:59.634Z,2.59
2022-11-29T20:37:36.504Z,2.59
2022-11-29T20:41:02.313Z,2.64
2022-11-29T20:44:17.617Z,2.64
2022-11-29T20:47:25.473Z,2.61
2022-11-29T20:50:39.551Z,2.66
2022-11-29T20:53:48.846Z,2.65
2022-11-29T20:56:59.700Z,2.63
2022-11-29T21:00:08.615Z,2.67
2022-11-29T21:03:17.135Z,2.67
2022-11-29T21:06:27.182Z,2.67
2022-11-29T21:09:33.418Z,2.65
2022-11-29T21:12:40.463Z,2.67
2022-11-29T21:15:45.741Z,2.66
2022-11-29T21:18:54.969Z,2.68
2022-11-29T21:22:48.988Z,2.69
2022-11-29T21:26:23.461Z,2.71
2022-11-29T21:29:43.354Z,2.71
2022-11-29T21:32:46.893Z,2.71
2022-11-29T21:35:58.210Z,2.74
2022-11-29T21:39:09.658Z,2.73
2022-11-29T21:42:13.817Z,2.81
2022-11-29T21:45:20.602Z,2.82
2022-11-29T21:48:36.280Z,2.75
2022-11-29T21:51:40.754Z,2.71
2022-11-29T21:54:46.594Z,2.69
2022-11-29T21:57:51.110Z,2.69
2022-11-29T22:00:54.477Z,2.66
2022-11-29T22:03:57.842Z,2.66
2022-11-29T22:07:03.456Z,2.66
2022-11-29T22:10:13.346Z,2.64
2022-11-29T22:13:16.261Z,2.65
2022-11-29T22:16:20.492Z,2.63
2022-11-29T22:19:30.337Z,2.65
2022-11-29T22:22:33.551Z,2.64
2022-11-29T22:25:36.873Z,2.67
2022-11-29T22:28:39.988Z,2.65
2022-11-29T22:31:45.221Z,2.64
2022-11-29T22:34:48.377Z,2.65
2022-11-29T22:37:51.733Z,2.66
2022-11-29T22:40:59.180Z,2.64
2022-11-29T22:44:05.502Z,2.65
2022-11-29T22:47:13.852Z,2.64
2022-11-29T22:50:24.761Z,2.62
2022-11-29T22:53:28.794Z,2.63
2022-11-29T22:56:33.708Z,2.60
2022-11-29T22:59:38.857Z,2.61
2022-11-29T23:02:48.004Z,2.60
2022-11-29T23:05:51.931Z,2.60
2022-11-29T23:08:58.840Z,2.59
2022-11-29T23:12:02.284Z,2.60
2022-11-29T23:15:05.363Z,2.61
2022-11-29T23:18:08.383Z,2.62
2022-11-29T23:21:15.635Z,2.63
2022-11-29T23:24:18.886Z,2.63
2022-11-29T23:27:22.599Z,2.66
2022-11-29T23:30:25.672Z,2.66
2022-11-29T23:33:29.070Z,2.65
2022-11-29T23:36:32.198Z,2.70
2022-11-29T23:39:35.074Z,2.68
2022-11-29T23:42:43.598Z,2.74
2022-11-29T23:45:49.816Z,2.69
2022-11-29T23:48:53.057Z,2.68
2022-11-29T23:51:55.891Z,2.65
2022-11-29T23:54:59.918Z,2.62
2022-11-29T23:58:03.423Z,2.62
